createdAt,value
2022-10-04T00:10:00.972Z,92.02
2022-10-04T00:20:31.634Z,92.11
2022-10-04T00:30:40.386Z,92.34
2022-10-04T00:40:54.347Z,92.49
2022-10-04T00:51:06.180Z,92.43
2022-10-04T01:01:12.621Z,92.77
2022-10-04T01:11:22.046Z,92.86
2022-10-04T01:21:32.393Z,93.07
2022-10-04T01:31:40.461Z,93.34
2022-10-04T01:41:54.059Z,93.53
2022-10-04T01:52:05.638Z,93.88
2022-10-04T02:02:21.242Z,93.57
2022-10-04T02:12:28.035Z,93.64
2022-10-04T02:22:34.001Z,93.85
2022-10-04T02:32:59.833Z,93.52
2022-10-04T02:43:10.238Z,93.65
2022-10-04T02:53:23.514Z,93.83
2022-10-04T03:03:30.932Z,93.65
2022-10-04T03:13:37.372Z,93.68
2022-10-04T03:23:44.324Z,93.60
2022-10-04T03:33:50.526Z,93.60
2022-10-04T03:44:01.421Z,93.83
2022-10-04T03:54:11.969Z,93.91
2022-10-04T04:04:24.593Z,93.89
2022-10-04T04:14:31.210Z,93.81
2022-10-04T04:24:39.119Z,94.05
2022-10-04T04:34:54.318Z,94.25
2022-10-04T04:45:02.746Z,94.17
2022-10-04T04:55:16.956Z,94.29
2022-10-04T05:05:28.214Z,94.30
2022-10-04T05:15:37.497Z,94.32
2022-10-04T05:25:43.773Z,94.09
2022-10-04T05:36:04.162Z,93.94
2022-10-04T05:46:28.190Z,94.02
2022-10-04T05:56:56.079Z,93.76
2022-10-04T06:07:07.565Z,93.82
2022-10-04T06:17:30.999Z,93.52
2022-10-04T06:27:42.260Z,92.95
2022-10-04T06:38:19.046Z,92.39
2022-10-04T06:48:43.758Z,92.00
2022-10-04T06:59:11.113Z,91.92
2022-10-04T07:09:24.328Z,91.45
2022-10-04T07:19:36.197Z,91.08
2022-10-04T07:29:46.440Z,90.64
2022-10-04T07:39:58.040Z,90.43
2022-10-04T07:50:20.395Z,90.08
2022-10-04T08:00:32.382Z,89.48
2022-10-04T08:10:47.441Z,89.56
2022-10-04T08:20:58.182Z,89.15
2022-10-04T08:31:21.516Z,88.72
2022-10-04T08:42:05.885Z,88.77
2022-10-04T08:52:41.180Z,88.65
2022-10-04T09:03:05.436Z,87.10
2022-10-04T09:13:25.075Z,84.78
2022-10-04T09:24:12.870Z,82.87
2022-10-04T09:34:41.918Z,81.26
2022-10-04T09:45:13.136Z,79.59
2022-10-04T09:55:42.318Z,78.01
2022-10-04T10:06:10.101Z,77.18
2022-10-04T10:16:46.441Z,77.53
2022-10-04T10:27:16.360Z,76.58
2022-10-04T10:37:40.970Z,75.86
2022-10-04T10:48:01.821Z,75.64
2022-10-04T10:58:34.172Z,74.52
2022-10-04T11:09:27.258Z,73.23
2022-10-04T11:20:24.370Z,70.93
2022-10-04T11:30:40.666Z,69.23
2022-10-04T11:41:03.994Z,68.63
2022-10-04T11:51:38.240Z,67.47
2022-10-04T12:01:59.891Z,67.36
2022-10-04T12:12:38.935Z,67.15
2022-10-04T12:23:02.600Z,66.78
2022-10-04T12:33:15.834Z,66.73
2022-10-04T12:43:30.896Z,66.32
2022-10-04T12:53:49.088Z,65.99
2022-10-04T13:04:20.130Z,65.48
2022-10-04T13:14:49.192Z,65.52
2022-10-04T13:25:11.303Z,65.37
2022-10-04T13:35:25.202Z,64.87
2022-10-04T13:45:42.582Z,64.33
2022-10-04T13:56:13.153Z,65.48
2022-10-04T14:06:46.724Z,66.16
2022-10-04T14:17:24.893Z,66.93
2022-10-04T14:27:59.751Z,67.63
2022-10-04T14:38:26.979Z,67.57
2022-10-04T14:49:00.709Z,66.73
2022-10-04T14:59:25.818Z,66.93
2022-10-04T15:09:55.220Z,66.78
2022-10-04T15:20:20.049Z,67.29
2022-10-04T15:30:39.571Z,68.21
2022-10-04T15:41:03.138Z,69.64
2022-10-04T15:51:19.650Z,70.17
2022-10-04T16:01:50.049Z,70.59
2022-10-04T16:12:22.301Z,71.46
2022-10-04T16:22:32.425Z,72.42
2022-10-04T16:32:45.692Z,73.70
2022-10-04T16:42:56.497Z,74.74
2022-10-04T16:53:21.048Z,75.78
2022-10-04T17:03:33.372Z,76.78
2022-10-04T17:13:56.642Z,77.78
2022-10-04T17:24:23.563Z,78.31
2022-10-04T17:34:41.810Z,79.06
2022-10-04T17:45:12.135Z,80.31
2022-10-04T17:55:21.264Z,80.98
2022-10-04T18:05:31.024Z,81.55
2022-10-04T18:15:42.634Z,82.11
2022-10-04T18:25:49.173Z,82.68
2022-10-04T18:36:04.520Z,83.09
2022-10-04T18:46:21.137Z,83.68
2022-10-04T18:56:33.764Z,83.93
2022-10-04T19:06:47.019Z,84.20
2022-10-04T19:17:00.002Z,84.45
2022-10-04T19:27:14.042Z,84.46
2022-10-04T19:37:26.652Z,85.24
2022-10-04T19:47:44.130Z,84.90
2022-10-04T19:57:58.658Z,85.45
2022-10-04T20:08:10.372Z,85.46
2022-10-04T20:19:10.768Z,85.79
2022-10-04T20:29:56.153Z,85.85
2022-10-04T20:40:02.175Z,86.05
2022-10-04T20:50:15.402Z,87.03
2022-10-04T21:00:24.228Z,86.77
2022-10-04T21:10:31.325Z,87.23
2022-10-04T21:20:48.088Z,88.00
2022-10-04T21:30:53.734Z,88.47
2022-10-04T21:40:59.451Z,88.60
2022-10-04T21:51:05.300Z,88.71
2022-10-04T22:01:11.159Z,88.94
2022-10-04T22:11:17.020Z,89.05
2022-10-04T22:21:23.043Z,88.95
2022-10-04T22:31:30.711Z,89.03
2022-10-04T22:41:38.334Z,88.77
2022-10-04T22:51:45.994Z,89.14
2022-10-04T23:01:50.232Z,89.40
2022-10-04T23:11:55.946Z,89.33
2022-10-04T23:22:01.669Z,89.31
2022-10-04T23:32:13.275Z,89.51
2022-10-04T23:42:22.070Z,89.94
2022-10-04T23:52:35.748Z,89.92
